Time;durP1;ratioP1;P1;durP2;ratioP2;P2;SDS_P1;SDS_P2;PMS_P1;PMS_P2;Temp;Humidity;BMP_temperature;BMP_pressure;BME280_temperature;BME280_humidity;BME280_pressure;Samples;Min_cycle;Max_cycle;Signal;HPM_P1;HPM_P2
2022/12/27 00:01:22;;;;;;;7.93;2.00;;;5.70;79.60;;;;;;5056589;28;20048;-69
2022/12/27 00:03:49;;;;;;;7.00;2.40;;;5.50;80.30;;;;;;5048144;28;20049;-70
2022/12/27 00:06:18;;;;;;;6.63;2.10;;;5.40;80.70;;;;;;5059533;28;20056;-69
2022/12/27 00:08:46;;;;;;;7.83;2.80;;;5.40;80.40;;;;;;5055304;28;20053;-68
2022/12/27 00:11:17;;;;;;;4.85;2.00;;;5.30;80.80;;;;;;5055487;28;20120;-70
2022/12/27 00:13:44;;;;;;;4.65;2.00;;;5.30;81.20;;;;;;5055436;28;20072;-70
2022/12/27 00:16:13;;;;;;;6.80;2.42;;;5.30;81.40;;;;;;5059679;28;20045;-71
2022/12/27 00:18:41;;;;;;;6.05;2.38;;;5.30;81.60;;;;;;5050076;28;20045;-61
2022/12/27 00:21:11;;;;;;;7.38;2.05;;;5.30;81.80;;;;;;5059213;28;20044;-63
2022/12/27 00:23:40;;;;;;;6.65;1.58;;;5.20;81.80;;;;;;5054349;28;20040;-63
2022/12/27 00:26:10;;;;;;;5.20;1.90;;;5.20;81.90;;;;;;5053853;28;20072;-60
2022/12/27 00:28:39;;;;;;;6.63;1.70;;;5.20;82.10;;;;;;5052403;28;20060;-60
2022/12/27 00:31:06;;;;;;;4.65;1.60;;;5.20;82.00;;;;;;5052854;28;20044;-71
2022/12/27 00:33:35;;;;;;;4.20;2.22;;;5.20;82.10;;;;;;5055068;28;20052;-71
2022/12/27 00:36:04;;;;;;;4.72;1.80;;;5.10;82.00;;;;;;5057293;28;20048;-63
2022/12/27 00:38:31;;;;;;;4.78;1.70;;;5.00;82.30;;;;;;5054502;28;20511;-60
2022/12/27 00:40:58;;;;;;;4.63;1.50;;;4.90;82.50;;;;;;5059517;28;20044;-61
2022/12/27 00:43:25;;;;;;;6.18;1.30;;;4.90;82.60;;;;;;5060693;28;20127;-61
2022/12/27 00:45:54;;;;;;;4.15;1.40;;;4.80;82.70;;;;;;5068541;28;20063;-59
2022/12/27 00:48:21;;;;;;;6.90;1.75;;;4.80;82.90;;;;;;5067429;28;20052;-60
2022/12/27 00:50:48;;;;;;;2.78;1.60;;;4.80;83.00;;;;;;5068773;28;20063;-61
2022/12/27 00:53:15;;;;;;;4.05;1.52;;;4.70;83.30;;;;;;5068998;28;20082;-60
2022/12/27 00:55:43;;;;;;;4.28;1.52;;;4.80;83.60;;;;;;5066210;28;20048;-60
2022/12/27 00:58:10;;;;;;;3.30;1.38;;;4.80;83.60;;;;;;5068339;28;20056;-60
2022/12/27 01:00:37;;;;;;;3.75;1.58;;;4.80;83.70;;;;;;5064481;28;20044;-60
2022/12/27 01:03:06;;;;;;;7.88;1.83;;;4.80;83.80;;;;;;5064202;28;20434;-59
2022/12/27 01:05:36;;;;;;;3.65;1.30;;;4.70;84.00;;;;;;5067703;28;20090;-61
2022/12/27 01:08:03;;;;;;;4.28;1.55;;;4.70;84.00;;;;;;5068687;28;20122;-60
2022/12/27 01:10:30;;;;;;;2.63;1.33;;;4.70;84.00;;;;;;5068585;28;20870;-61
2022/12/27 01:12:59;;;;;;;4.88;1.73;;;4.70;84.00;;;;;;5067118;28;20092;-61
2022/12/27 01:15:27;;;;;;;4.97;1.67;;;4.70;84.00;;;;;;5067443;28;20048;-60
2022/12/27 01:17:54;;;;;;;8.15;1.55;;;4.70;84.10;;;;;;5066267;28;20052;-61
2022/12/27 01:20:22;;;;;;;5.95;1.65;;;4.70;84.00;;;;;;5067917;28;20044;-60
2022/12/27 01:22:49;;;;;;;4.50;1.80;;;4.70;83.80;;;;;;5061859;28;20040;-61
2022/12/27 01:25:16;;;;;;;5.40;1.58;;;4.70;83.70;;;;;;5066132;28;20048;-61
2022/12/27 01:27:43;;;;;;;4.00;1.40;;;4.60;83.70;;;;;;5067503;28;20045;-59
2022/12/27 01:30:11;;;;;;;3.08;1.48;;;4.60;83.80;;;;;;5066846;28;20055;-60
2022/12/27 01:32:38;;;;;;;3.28;1.42;;;4.50;83.70;;;;;;5060899;28;20388;-61
2022/12/27 01:35:05;;;;;;;3.72;1.50;;;4.50;83.70;;;;;;5067944;28;20817;-61
2022/12/27 01:37:34;;;;;;;3.78;1.38;;;4.50;83.70;;;;;;5065983;28;20052;-61
2022/12/27 01:40:00;;;;;;;3.95;1.50;;;4.40;83.60;;;;;;5066457;28;20052;-61
2022/12/27 01:45:20;;;;;;;3.33;1.40;;;4.40;83.70;;;;;;5067590;28;20119;-70
2022/12/27 01:47:53;;;;;;;3.45;1.40;;;4.40;83.60;;;;;;5067184;28;20041;-69
2022/12/27 01:50:26;;;;;;;3.90;1.58;;;4.40;83.80;;;;;;5063291;28;20045;-69
2022/12/27 01:53:02;;;;;;;3.75;1.30;;;4.40;83.50;;;;;;5052036;28;20507;-68
2022/12/27 01:55:33;;;;;;;5.30;1.40;;;4.40;83.50;;;;;;5058260;28;20049;-61
2022/12/27 01:58:04;;;;;;;5.20;1.80;;;4.40;83.60;;;;;;5052099;28;20882;-59
2022/12/27 02:00:31;;;;;;;3.42;1.40;;;4.40;83.70;;;;;;5058646;28;20491;-61
2022/12/27 02:03:00;;;;;;;2.90;1.60;;;4.30;83.80;;;;;;5066455;28;20052;-60
2022/12/27 02:05:28;;;;;;;5.55;1.67;;;4.30;83.70;;;;;;5065353;28;20096;-62
2022/12/27 02:08:10;;;;;;;4.45;1.73;;;4.30;83.60;;;;;;5065828;28;20542;-60
2022/12/27 02:10:38;;;;;;;5.47;1.42;;;4.30;83.60;;;;;;5067846;28;20059;-70
2022/12/27 02:13:06;;;;;;;4.55;1.58;;;4.30;83.80;;;;;;5068543;28;20485;-70
2022/12/27 02:15:33;;;;;;;6.53;1.80;;;4.30;83.60;;;;;;5060021;28;20091;-69
2022/12/27 02:18:00;;;;;;;6.68;1.63;;;4.30;83.60;;;;;;5068485;28;20044;-70
2022/12/27 02:20:36;;;;;;;3.13;1.33;;;4.30;83.50;;;;;;5067569;28;20048;-68
2022/12/27 02:26:58;;;;;;;3.25;1.40;;;4.20;83.70;;;;;;5067484;28;20170;-61
2022/12/27 02:29:43;;;;;;;6.43;1.70;;;4.20;83.60;;;;;;5062957;28;20053;-60
2022/12/27 02:32:15;;;;;;;4.50;1.48;;;4.30;83.80;;;;;;5063975;28;20628;-59
2022/12/27 02:34:51;;;;;;;4.07;1.67;;;4.20;83.80;;;;;;5066182;28;20091;-60
2022/12/27 02:37:21;;;;;;;4.38;1.52;;;4.20;83.90;;;;;;5065270;28;20053;-60
2022/12/27 02:39:50;;;;;;;6.35;1.65;;;4.20;83.90;;;;;;5066489;28;20044;-61
2022/12/27 02:53:44;;;;;;;5.93;2.20;;;4.10;84.10;;;;;;5067987;28;20056;-60
2022/12/27 02:59:23;;;;;;;5.35;1.30;;;4.20;84.00;;;;;;5065903;28;20198;-60
2022/12/27 03:05:01;;;;;;;4.22;1.50;;;4.10;83.90;;;;;;5071729;28;20051;-60
2022/12/27 03:07:38;;;;;;;4.13;1.55;;;4.10;84.00;;;;;;5068525;28;20102;-61
2022/12/27 03:16:23;;;;;;;3.92;1.42;;;4.00;84.20;;;;;;5064887;28;20048;-63
2022/12/27 03:19:02;;;;;;;5.15;1.38;;;4.00;84.10;;;;;;5069932;28;21466;-62
2022/12/27 03:27:08;;;;;;;2.78;1.10;;;4.00;84.30;;;;;;5071414;28;20045;-59
2022/12/27 03:35:13;;;;;;;4.72;1.60;;;4.00;84.30;;;;;;5071074;28;20044;-69
2022/12/27 03:38:02;;;;;;;3.40;1.40;;;3.90;84.20;;;;;;5069796;28;21296;-60
2022/12/27 03:43:09;;;;;;;4.18;1.30;;;3.90;84.30;;;;;;5070081;28;20049;-62
2022/12/27 03:43:33;;;;;;;4.32;1.50;;;4.00;84.30;;;;;;5070500;28;20057;-61
2022/12/27 03:49:06;;;;;;;4.13;1.40;;;4.00;84.50;;;;;;5069465;28;20131;-61
2022/12/27 03:51:38;;;;;;;4.60;1.42;;;3.90;84.40;;;;;;5065730;28;20103;-60
2022/12/27 03:54:09;;;;;;;6.18;1.65;;;4.00;84.40;;;;;;5070956;28;20045;-59
2022/12/27 03:56:37;;;;;;;5.32;1.25;;;4.00;84.30;;;;;;5069160;28;20487;-70
2022/12/27 03:59:05;;;;;;;2.92;1.33;;;3.90;84.30;;;;;;5069232;28;20099;-69
2022/12/27 04:01:32;;;;;;;3.38;1.30;;;3.90;84.50;;;;;;5070283;28;20068;-69
2022/12/27 04:03:58;;;;;;;4.63;1.70;;;3.90;84.50;;;;;;5070496;28;20071;-70
2022/12/27 04:06:25;;;;;;;6.45;1.30;;;3.90;84.50;;;;;;5071420;28;20065;-61
2022/12/27 04:36:19;;;;;;;2.97;1.10;;;3.80;84.60;;;;;;5069657;28;20048;-58
2022/12/27 04:38:46;;;;;;;1.58;0.70;;;3.80;84.60;;;;;;5070264;28;20048;-59
2022/12/27 04:55:16;;;;;;;2.60;1.10;;;3.60;85.00;;;;;;5068406;28;20052;-61
2022/12/27 04:57:45;;;;;;;3.60;1.10;;;3.60;85.20;;;;;;5067168;28;20048;-61
2022/12/27 05:02:57;;;;;;;4.68;1.17;;;3.70;85.30;;;;;;5066270;28;20535;-62
2022/12/27 05:05:25;;;;;;;3.03;0.85;;;3.60;85.40;;;;;;5068087;28;20040;-61
2022/12/27 05:16:07;;;;;;;2.78;0.63;;;3.70;85.80;;;;;;5066472;28;20049;-69
2022/12/27 05:18:34;;;;;;;2.05;0.70;;;3.70;86.00;;;;;;5067580;28;20056;-68
2022/12/27 05:21:03;;;;;;;1.23;0.57;;;3.80;85.90;;;;;;5067485;28;20060;-68
2022/12/27 05:26:19;;;;;;;2.63;0.90;;;3.80;86.00;;;;;;5067853;28;20048;-68
2022/12/27 05:28:48;;;;;;;2.58;0.80;;;3.80;85.80;;;;;;5066057;28;20045;-68
2022/12/27 05:31:15;;;;;;;2.58;0.60;;;3.80;85.90;;;;;;5067133;28;20051;-68
2022/12/27 05:33:42;;;;;;;1.23;0.55;;;3.80;85.80;;;;;;5066593;28;20523;-70
2022/12/27 05:36:10;;;;;;;3.00;0.65;;;3.80;85.80;;;;;;5066273;28;20041;-61
2022/12/27 05:38:36;;;;;;;2.83;0.60;;;3.80;85.80;;;;;;5062970;28;20067;-61
2022/12/27 05:41:04;;;;;;;2.35;0.70;;;3.90;85.90;;;;;;5065246;28;20051;-60
2022/12/27 05:43:31;;;;;;;3.67;0.82;;;3.90;86.00;;;;;;5053880;28;20511;-60
2022/12/27 05:46:04;;;;;;;2.03;0.50;;;3.90;86.10;;;;;;5054047;28;20048;-68
2022/12/27 05:48:31;;;;;;;1.83;0.68;;;3.90;86.30;;;;;;5049475;28;20064;-66
2022/12/27 05:50:58;;;;;;;2.17;0.75;;;3.90;86.10;;;;;;5052878;28;20044;-70
2022/12/27 05:53:25;;;;;;;4.13;0.98;;;3.90;86.30;;;;;;5055556;28;20052;-69
2022/12/27 05:55:56;;;;;;;2.50;0.77;;;3.90;86.30;;;;;;5056489;28;20103;-70
2022/12/27 05:58:23;;;;;;;2.47;0.82;;;4.00;86.30;;;;;;5055171;28;20519;-70
2022/12/27 06:00:50;;;;;;;3.92;0.70;;;4.00;86.40;;;;;;5051057;28;20580;-61
2022/12/27 06:03:18;;;;;;;2.78;0.60;;;4.00;86.40;;;;;;5054367;28;20053;-61
2022/12/27 06:05:45;;;;;;;3.10;0.65;;;4.00;86.40;;;;;;5051214;28;20053;-61
2022/12/27 06:08:14;;;;;;;3.72;0.57;;;4.00;86.40;;;;;;5055097;28;20040;-60
2022/12/27 06:10:41;;;;;;;3.67;0.68;;;4.00;86.40;;;;;;5048100;28;20052;-61
2022/12/27 06:13:08;;;;;;;2.67;0.77;;;4.00;86.60;;;;;;5054749;28;20087;-60
2022/12/27 06:15:35;;;;;;;2.03;0.77;;;4.00;86.50;;;;;;5051691;28;20384;-68
2022/12/27 06:18:02;;;;;;;3.08;0.85;;;4.00;86.40;;;;;;5050854;28;20049;-67
2022/12/27 06:20:30;;;;;;;4.22;0.90;;;4.00;86.40;;;;;;5053462;28;20072;-66
2022/12/27 06:22:59;;;;;;;2.95;0.80;;;4.00;86.50;;;;;;5051826;28;20052;-68
2022/12/27 06:25:29;;;;;;;3.30;0.90;;;4.00;86.40;;;;;;5053676;28;20090;-69
2022/12/27 06:27:56;;;;;;;4.82;1.00;;;4.00;86.50;;;;;;5054286;28;20049;-58
2022/12/27 06:30:23;;;;;;;5.03;1.00;;;4.00;86.60;;;;;;5050595;28;20044;-58
2022/12/27 06:32:50;;;;;;;2.20;0.75;;;4.10;86.80;;;;;;5052343;28;20353;-58
2022/12/27 06:35:17;;;;;;;2.60;0.88;;;4.10;86.80;;;;;;5057574;28;20053;-59
2022/12/27 06:37:45;;;;;;;2.70;0.88;;;4.20;86.70;;;;;;5053314;28;20045;-58
2022/12/27 06:40:12;;;;;;;3.88;0.80;;;4.20;86.90;;;;;;5053977;28;20139;-58
2022/12/27 06:42:39;;;;;;;2.55;0.63;;;4.20;86.90;;;;;;5057399;28;20052;-61
2022/12/27 06:45:08;;;;;;;3.97;0.90;;;4.20;86.90;;;;;;5054696;28;20411;-61
2022/12/27 06:47:35;;;;;;;2.78;0.68;;;4.20;86.90;;;;;;5054038;28;20163;-60
2022/12/27 06:50:03;;;;;;;2.95;0.60;;;4.20;86.90;;;;;;5057981;28;20064;-61
2022/12/27 06:52:30;;;;;;;2.95;0.77;;;4.20;86.90;;;;;;5024646;28;20489;-62
2022/12/27 06:54:58;;;;;;;3.20;0.93;;;4.20;87.00;;;;;;5053309;28;20072;-59
2022/12/27 06:57:25;;;;;;;2.50;0.90;;;4.20;86.90;;;;;;5054330;28;20053;-61
2022/12/27 06:59:52;;;;;;;2.53;0.70;;;4.20;86.90;;;;;;5056467;28;20114;-61
2022/12/27 07:02:19;;;;;;;3.05;0.93;;;4.20;86.80;;;;;;5055895;28;20048;-58
2022/12/27 07:04:46;;;;;;;3.92;1.40;;;4.20;86.80;;;;;;5056134;28;20052;-58
2022/12/27 07:07:13;;;;;;;2.13;0.90;;;4.20;86.70;;;;;;5055303;28;20045;-57
2022/12/27 07:09:40;;;;;;;2.17;0.77;;;4.20;86.90;;;;;;5054685;28;20041;-58
2022/12/27 07:12:09;;;;;;;5.28;1.13;;;4.20;86.80;;;;;;5052642;28;20040;-58
2022/12/27 07:14:36;;;;;;;3.38;1.00;;;4.20;87.00;;;;;;5058201;28;20049;-59
2022/12/27 07:17:03;;;;;;;3.88;0.93;;;4.20;87.00;;;;;;5055341;28;20043;-61
2022/12/27 07:19:30;;;;;;;5.47;1.02;;;4.20;87.10;;;;;;5057477;28;20074;-62
2022/12/27 07:21:57;;;;;;;4.43;1.52;;;4.30;87.10;;;;;;5054223;28;20430;-61
2022/12/27 07:24:23;;;;;;;4.50;1.15;;;4.20;86.90;;;;;;5059300;28;20068;-60
2022/12/27 07:26:50;;;;;;;5.40;1.17;;;4.30;86.90;;;;;;5055519;28;20471;-61
2022/12/27 07:29:18;;;;;;;3.10;1.23;;;4.20;86.90;;;;;;5057617;28;20514;-61
2022/12/27 07:31:45;;;;;;;4.32;1.15;;;4.20;86.90;;;;;;5056638;28;20491;-60
2022/12/27 07:34:12;;;;;;;4.68;1.42;;;4.20;86.90;;;;;;5056827;28;20127;-60
2022/12/27 07:36:40;;;;;;;6.93;0.95;;;4.20;87.00;;;;;;5055834;28;20379;-59
2022/12/27 07:39:07;;;;;;;3.50;1.10;;;4.20;86.90;;;;;;5057389;28;20110;-61
2022/12/27 07:41:36;;;;;;;3.63;1.40;;;4.20;86.90;;;;;;5054829;28;20080;-61
2022/12/27 07:44:04;;;;;;;5.38;1.40;;;4.20;86.90;;;;;;5051545;28;20057;-59
2022/12/27 07:46:32;;;;;;;3.45;1.20;;;4.20;87.00;;;;;;5054020;28;20064;-69
2022/12/27 07:48:59;;;;;;;2.67;1.23;;;4.20;86.90;;;;;;5056053;28;20053;-69
2022/12/27 07:51:28;;;;;;;3.90;1.02;;;4.20;86.90;;;;;;5057211;28;20146;-70
2022/12/27 07:53:55;;;;;;;7.60;1.65;;;4.20;86.90;;;;;;5052343;28;20048;-68
2022/12/27 07:56:24;;;;;;;5.03;1.63;;;4.20;86.90;;;;;;5057628;28;20450;-60
2022/12/27 07:58:53;;;;;;;5.75;1.58;;;4.30;86.70;;;;;;5055137;28;20064;-59
2022/12/27 08:01:22;;;;;;;4.65;1.40;;;4.20;86.80;;;;;;5054152;28;20048;-60
2022/12/27 08:03:51;;;;;;;3.22;1.23;;;4.30;86.70;;;;;;5052981;28;21849;-59
2022/12/27 08:06:24;;;;;;;4.25;1.50;;;4.20;86.80;;;;;;5055985;28;20479;-60
2022/12/27 08:08:53;;;;;;;6.25;1.60;;;4.20;86.70;;;;;;5055803;28;20052;-58
2022/12/27 08:11:22;;;;;;;7.05;1.60;;;4.20;86.70;;;;;;5055447;28;20068;-58
2022/12/27 08:13:49;;;;;;;5.25;1.50;;;4.20;86.80;;;;;;5058424;28;20084;-57
2022/12/27 08:16:18;;;;;;;8.35;1.67;;;4.20;86.90;;;;;;5053731;28;20126;-57
2022/12/27 08:18:46;;;;;;;4.97;1.73;;;4.20;86.70;;;;;;5056052;28;20345;-58
2022/12/27 08:21:15;;;;;;;6.78;2.00;;;4.30;86.70;;;;;;5051161;28;20049;-58
2022/12/27 08:23:42;;;;;;;4.82;1.70;;;4.30;86.70;;;;;;5055299;28;20053;-58
2022/12/27 08:26:09;;;;;;;6.35;2.08;;;4.20;86.70;;;;;;5053363;28;20123;-69
2022/12/27 08:28:36;;;;;;;7.30;1.98;;;4.30;86.90;;;;;;5053459;28;20518;-70
2022/12/27 08:31:06;;;;;;;6.05;1.90;;;4.30;86.80;;;;;;5054925;28;20052;-70
2022/12/27 08:33:33;;;;;;;8.13;2.17;;;4.30;86.80;;;;;;5051328;28;20064;-70
2022/12/27 08:36:04;;;;;;;6.30;2.00;;;4.30;86.70;;;;;;5054776;28;20274;-60
2022/12/27 08:38:32;;;;;;;7.15;2.42;;;4.30;86.90;;;;;;5056812;28;20068;-61
2022/12/27 08:40:59;;;;;;;7.60;2.20;;;4.30;87.00;;;;;;5057670;28;20114;-60
2022/12/27 08:43:28;;;;;;;5.90;2.10;;;4.30;86.80;;;;;;5054589;28;20056;-60
2022/12/27 08:46:00;;;;;;;4.75;2.10;;;4.30;86.80;;;;;;5048253;28;20041;-59
2022/12/27 08:48:32;;;;;;;7.38;2.30;;;4.30;86.90;;;;;;5050292;28;20371;-59
2022/12/27 08:51:03;;;;;;;4.13;1.92;;;4.40;86.70;;;;;;5050730;28;20408;-61
2022/12/27 08:53:31;;;;;;;4.78;2.15;;;4.30;86.90;;;;;;5053719;28;20064;-62
2022/12/27 08:55:59;;;;;;;5.82;2.00;;;4.40;86.70;;;;;;5058099;28;20061;-64
2022/12/27 08:58:26;;;;;;;7.25;2.08;;;4.40;86.70;;;;;;5055109;28;20164;-64
2022/12/27 09:00:53;;;;;;;7.22;2.13;;;4.40;86.70;;;;;;5055904;28;20045;-60
2022/12/27 09:03:21;;;;;;;4.63;1.63;;;4.40;87.00;;;;;;5052953;28;20052;-61
2022/12/27 09:05:49;;;;;;;4.38;1.80;;;4.40;87.10;;;;;;5053627;28;20071;-60
2022/12/27 09:08:16;;;;;;;6.70;2.05;;;4.50;86.90;;;;;;5057009;28;20426;-59
2022/12/27 09:10:44;;;;;;;7.55;1.65;;;4.50;87.10;;;;;;5052812;28;20052;-62
2022/12/27 09:13:11;;;;;;;4.68;1.60;;;4.50;87.20;;;;;;5054985;28;20049;-62
2022/12/27 09:15:38;;;;;;;5.40;1.50;;;4.60;87.00;;;;;;5052802;28;20072;-62
2022/12/27 09:18:06;;;;;;;3.95;1.77;;;4.60;86.80;;;;;;5057619;28;20052;-63
2022/12/27 09:20:33;;;;;;;4.03;1.33;;;4.60;86.70;;;;;;5051310;28;20057;-58
2022/12/27 09:22:59;;;;;;;4.53;1.50;;;4.70;87.10;;;;;;5053546;28;20498;-59
2022/12/27 09:25:26;;;;;;;4.78;1.23;;;4.60;86.70;;;;;;5055078;28;20051;-59
2022/12/27 09:27:54;;;;;;;4.18;1.20;;;4.60;86.80;;;;;;5053406;28;20053;-58
2022/12/27 09:30:21;;;;;;;6.93;1.60;;;4.70;87.00;;;;;;5049740;28;20055;-60
2022/12/27 09:32:48;;;;;;;5.03;1.77;;;4.70;86.80;;;;;;5053393;28;20055;-60
2022/12/27 09:35:15;;;;;;;4.30;1.63;;;4.70;87.10;;;;;;5050432;28;20057;-68
2022/12/27 09:37:42;;;;;;;2.90;1.17;;;4.70;86.70;;;;;;5055868;28;20049;-68
2022/12/27 09:40:14;;;;;;;3.08;1.25;;;4.70;86.60;;;;;;5048676;28;20052;-68
2022/12/27 09:42:46;;;;;;;8.85;1.52;;;4.70;86.90;;;;;;5060131;28;20045;-68
2022/12/27 09:45:18;;;;;;;4.25;1.60;;;4.80;86.70;;;;;;5067519;28;20132;-69
2022/12/27 09:47:52;;;;;;;4.07;1.30;;;4.80;86.70;;;;;;5063216;28;20060;-69
2022/12/27 09:50:25;;;;;;;6.32;1.70;;;4.80;86.70;;;;;;5065024;28;20384;-66
2022/12/27 09:52:59;;;;;;;6.70;1.55;;;4.80;86.80;;;;;;5063828;28;21001;-67
2022/12/27 09:55:37;;;;;;;4.25;1.30;;;4.90;87.00;;;;;;5060918;28;20064;-68
2022/12/27 09:58:18;;;;;;;5.38;1.48;;;4.90;86.80;;;;;;5062722;28;20375;-68
2022/12/27 10:00:50;;;;;;;5.90;1.60;;;4.90;86.80;;;;;;5063203;28;20053;-66
2022/12/27 10:03:20;;;;;;;4.88;1.95;;;4.90;87.10;;;;;;5066660;28;20071;-67
2022/12/27 10:05:49;;;;;;;;;;;4.90;86.90;;;;;;5067782;28;20395;-66
2022/12/27 10:08:30;;;;;;;5.85;1.70;;;5.00;87.00;;;;;;5063963;28;19928;-68
2022/12/27 10:11:07;;;;;;;5.28;1.70;;;5.00;86.90;;;;;;5065384;28;20049;-59
2022/12/27 10:13:46;;;;;;;5.97;1.70;;;5.10;87.10;;;;;;5060680;28;20055;-62
2022/12/27 10:16:25;;;;;;;7.07;1.60;;;5.00;87.10;;;;;;5062882;28;20078;-60
2022/12/27 10:19:15;;;;;;;5.07;1.25;;;5.10;86.90;;;;;;5066252;28;20054;-58
2022/12/27 10:21:54;;;;;;;3.83;1.20;;;5.10;86.90;;;;;;5063750;28;20037;-59
2022/12/27 10:24:26;;;;;;;7.75;2.40;;;5.10;86.90;;;;;;5062160;28;20077;-58
2022/12/27 10:26:54;;;;;;;5.30;1.65;;;5.10;87.10;;;;;;5064035;28;20048;-68
2022/12/27 10:29:23;;;;;;;7.00;1.95;;;5.20;87.00;;;;;;5061609;28;20054;-69
2022/12/27 10:31:51;;;;;;;5.18;1.63;;;5.20;87.00;;;;;;5063680;28;20080;-65
2022/12/27 10:34:23;;;;;;;5.40;2.00;;;5.20;86.90;;;;;;5066670;28;20501;-66
2022/12/27 10:36:51;;;;;;;4.53;1.52;;;5.30;87.00;;;;;;5063239;28;20068;-67
2022/12/27 10:39:20;;;;;;;4.55;1.55;;;5.40;87.00;;;;;;5063440;28;20101;-67
2022/12/27 10:41:59;;;;;;;6.88;1.60;;;5.50;87.10;;;;;;5058967;28;20372;-67
2022/12/27 10:44:26;;;;;;;6.88;2.05;;;5.40;86.80;;;;;;5053744;28;20048;-68
2022/12/27 10:46:55;;;;;;;6.07;1.85;;;5.50;87.00;;;;;;5053084;28;20048;-67
2022/12/27 10:49:26;;;;;;;6.28;1.83;;;5.50;86.80;;;;;;5052465;28;20041;-67
2022/12/27 10:51:56;;;;;;;6.00;1.63;;;5.50;86.80;;;;;;5052996;28;20048;-68
2022/12/27 10:54:25;;;;;;;9.57;1.90;;;5.60;86.80;;;;;;5051727;28;20112;-69
2022/12/27 10:56:53;;;;;;;10.45;1.80;;;5.60;86.80;;;;;;5052154;28;20055;-67
2022/12/27 10:59:22;;;;;;;5.55;1.52;;;5.60;86.50;;;;;;5053754;28;20041;-68
2022/12/27 11:01:52;;;;;;;3.83;1.27;;;5.70;86.60;;;;;;5047883;28;20053;-68
2022/12/27 11:04:22;;;;;;;4.68;1.60;;;5.60;86.50;;;;;;5056400;28;20041;-68
2022/12/27 11:06:51;;;;;;;7.78;1.67;;;5.70;86.70;;;;;;5050711;28;20130;-61
2022/12/27 11:09:25;;;;;;;3.45;1.50;;;5.70;86.70;;;;;;5051666;28;20049;-63
2022/12/27 11:11:52;;;;;;;4.53;1.80;;;5.70;86.70;;;;;;5049791;28;20202;-63
2022/12/27 11:14:20;;;;;;;6.38;2.03;;;5.80;86.50;;;;;;5049728;28;20060;-63
2022/12/27 11:16:48;;;;;;;4.25;1.92;;;5.80;86.50;;;;;;5052194;28;20064;-60
2022/12/27 11:19:24;;;;;;;5.65;2.22;;;5.80;86.40;;;;;;5045287;28;20048;-61
2022/12/27 11:21:52;;;;;;;6.28;1.90;;;5.80;86.50;;;;;;5052496;28;20139;-61
2022/12/27 11:24:21;;;;;;;4.95;1.40;;;5.80;86.60;;;;;;5055947;28;20053;-61
2022/12/27 11:26:53;;;;;;;6.00;1.67;;;5.80;86.50;;;;;;5059643;28;20056;-58
2022/12/27 11:29:23;;;;;;;6.18;1.80;;;5.80;86.30;;;;;;5046928;28;20507;-57
2022/12/27 11:31:51;;;;;;;5.05;1.35;;;5.80;86.20;;;;;;5054191;28;20049;-64
2022/12/27 11:34:21;;;;;;;5.13;1.80;;;5.80;86.30;;;;;;5053616;28;20044;-64
2022/12/27 11:36:52;;;;;;;5.55;1.67;;;5.80;86.20;;;;;;5057947;28;20065;-64
2022/12/27 11:39:38;;;;;;;6.10;1.63;;;5.80;86.20;;;;;;5055671;28;20063;-63
2022/12/27 11:42:09;;;;;;;6.38;2.08;;;5.80;86.20;;;;;;5060876;28;20044;-64
2022/12/27 11:44:40;;;;;;;4.68;1.73;;;5.90;86.10;;;;;;5068190;28;20053;-65
2022/12/27 11:47:13;;;;;;;5.57;1.90;;;5.90;86.00;;;;;;5066634;28;20048;-64
2022/12/27 11:49:48;;;;;;;6.50;2.13;;;5.90;86.00;;;;;;5062445;28;20130;-64
2022/12/27 11:52:43;;;;;;;7.03;1.73;;;5.90;85.80;;;;;;5067637;28;20059;-64
2022/12/27 11:55:38;;;;;;;6.25;1.88;;;5.90;85.80;;;;;;5068008;28;20161;-66
2022/12/27 11:58:41;;;;;;;6.43;1.80;;;6.00;85.80;;;;;;5066977;28;20053;-63
2022/12/27 12:01:29;;;;;;;5.32;1.77;;;6.00;85.70;;;;;;5033355;28;20044;-63
2022/12/27 12:04:22;;;;;;;5.45;1.92;;;6.10;85.80;;;;;;5066531;28;20040;-63
2022/12/27 12:07:01;;;;;;;4.75;1.67;;;6.10;85.60;;;;;;5066469;28;20380;-64
2022/12/27 12:09:47;;;;;;;4.22;2.08;;;6.10;85.50;;;;;;5067637;28;20067;-65
2022/12/27 12:12:52;;;;;;;6.10;2.25;;;6.10;85.30;;;;;;5066239;28;20603;-64
2022/12/27 12:15:41;;;;;;;6.85;1.63;;;6.10;85.30;;;;;;5065394;28;20077;-63
2022/12/27 12:18:29;;;;;;;7.43;2.08;;;6.10;85.30;;;;;;5056670;28;20483;-64
2022/12/27 12:21:23;;;;;;;5.68;2.10;;;6.10;85.30;;;;;;5067938;28;20051;-65
2022/12/27 12:24:08;;;;;;;8.68;2.55;;;6.10;85.10;;;;;;5066001;28;20119;-63
2022/12/27 12:26:43;;;;;;;8.38;2.58;;;6.20;85.20;;;;;;5066058;28;20144;-64
2022/12/27 12:29:25;;;;;;;6.53;2.40;;;6.20;85.10;;;;;;5060442;28;20044;-64
2022/12/27 12:32:24;;;;;;;5.70;2.15;;;6.20;85.00;;;;;;5067147;28;20394;-65
2022/12/27 12:35:16;;;;;;;5.88;2.28;;;6.10;84.80;;;;;;5067486;28;20055;-64
2022/12/27 12:38:01;;;;;;;6.95;1.92;;;6.10;84.60;;;;;;5067611;28;20102;-65
2022/12/27 12:40:41;;;;;;;4.35;1.80;;;6.10;84.70;;;;;;5064179;28;20102;-64
2022/12/27 12:43:24;;;;;;;7.32;1.95;;;6.10;84.80;;;;;;5062311;28;20052;-64
2022/12/27 12:46:02;;;;;;;5.00;2.35;;;6.20;84.80;;;;;;5065974;28;20048;-69
2022/12/27 12:49:00;;;;;;;5.75;2.05;;;6.20;84.70;;;;;;5067340;28;20506;-69
2022/12/27 12:51:58;;;;;;;5.30;1.70;;;6.20;84.70;;;;;;5066050;28;20049;-69
2022/12/27 12:54:46;;;;;;;5.10;1.95;;;6.10;84.80;;;;;;5060149;28;20049;-68
2022/12/27 12:57:26;;;;;;;5.07;1.90;;;6.10;84.80;;;;;;5063823;28;20067;-68
2022/12/27 13:00:09;;;;;;;6.00;2.00;;;6.10;84.90;;;;;;5063287;28;20055;-69
2022/12/27 13:03:21;;;;;;;6.00;1.90;;;6.10;84.90;;;;;;5064651;28;20041;-69
2022/12/27 13:05:52;;;;;;;5.55;2.13;;;6.10;84.70;;;;;;4974192;28;20541;-69
2022/12/27 13:08:25;;;;;;;4.35;1.63;;;6.10;84.60;;;;;;5067176;28;20124;-68
2022/12/27 13:11:18;;;;;;;5.68;1.83;;;6.10;84.70;;;;;;5062900;28;20047;-68
2022/12/27 13:14:01;;;;;;;8.60;2.78;;;6.10;84.80;;;;;;5036429;28;20565;-69
2022/12/27 13:16:40;;;;;;;5.85;2.40;;;6.10;84.60;;;;;;5058080;28;20044;-68
2022/12/27 13:19:32;;;;;;;4.75;1.92;;;6.10;84.70;;;;;;5064222;28;20040;-69
2022/12/27 13:22:08;;;;;;;6.30;1.75;;;6.20;84.60;;;;;;5062637;28;20040;-70
2022/12/27 13:24:58;;;;;;;5.78;1.70;;;6.20;84.60;;;;;;5067760;28;20096;-69
2022/12/27 13:27:34;;;;;;;4.25;1.70;;;6.10;84.60;;;;;;5064284;28;20059;-69
2022/12/27 13:30:15;;;;;;;7.05;1.90;;;6.20;84.50;;;;;;5059992;28;20119;-68
2022/12/27 13:33:00;;;;;;;5.15;1.63;;;6.10;84.50;;;;;;5066308;28;20471;-68
2022/12/27 13:35:36;;;;;;;4.28;1.67;;;6.10;84.60;;;;;;5065535;28;20135;-70
2022/12/27 13:38:22;;;;;;;6.40;1.77;;;6.10;84.50;;;;;;5059447;28;20367;-68
2022/12/27 13:41:20;;;;;;;3.47;1.80;;;6.20;84.50;;;;;;5064772;28;20079;-68
2022/12/27 13:44:06;;;;;;;4.38;1.80;;;6.20;84.40;;;;;;5052662;28;20044;-68
2022/12/27 13:46:47;;;;;;;7.50;2.00;;;6.20;84.40;;;;;;5050016;28;20056;-68
2022/12/27 13:49:50;;;;;;;5.65;2.20;;;6.10;84.20;;;;;;5052995;28;20045;-68
2022/12/27 13:52:38;;;;;;;4.95;1.80;;;6.10;84.50;;;;;;5055138;28;20040;-69
2022/12/27 13:55:32;;;;;;;5.03;2.03;;;6.10;84.40;;;;;;5051576;28;20045;-69
2022/12/27 13:58:19;;;;;;;5.70;2.00;;;6.10;84.50;;;;;;5049262;28;20606;-69
2022/12/27 14:00:55;;;;;;;4.82;1.85;;;6.10;84.50;;;;;;5052922;28;20052;-69
2022/12/27 14:03:50;;;;;;;6.53;1.48;;;6.10;84.30;;;;;;5051942;28;20492;-69
2022/12/27 14:06:39;;;;;;;5.00;1.80;;;6.10;84.50;;;;;;5050981;28;20049;-63
2022/12/27 14:09:30;;;;;;;4.45;2.10;;;6.20;84.40;;;;;;5055559;28;20044;-61
2022/12/27 14:12:27;;;;;;;9.65;1.90;;;6.20;84.40;;;;;;5052481;28;20048;-61
2022/12/27 14:14:56;;;;;;;6.63;2.17;;;6.10;84.40;;;;;;5044473;28;20056;-62
2022/12/27 14:17:30;;;;;;;6.57;2.22;;;6.10;84.30;;;;;;5055113;28;20044;-61
2022/12/27 14:20:11;;;;;;;3.35;1.55;;;6.10;84.50;;;;;;5054932;28;20052;-61
2022/12/27 14:22:55;;;;;;;6.15;2.20;;;6.10;84.30;;;;;;5051486;28;20047;-61
2022/12/27 14:26:13;;;;;;;4.13;1.65;;;6.10;84.20;;;;;;5056446;28;20067;-60
2022/12/27 14:29:15;;;;;;;5.15;2.20;;;6.10;84.30;;;;;;4954006;28;20070;-60
2022/12/27 14:32:36;;;;;;;6.45;1.90;;;6.20;84.40;;;;;;5050079;28;20135;-59
2022/12/27 14:35:30;;;;;;;4.82;1.80;;;6.10;84.30;;;;;;4992868;28;22453;-61
2022/12/27 14:38:25;;;;;;;4.68;1.88;;;6.10;84.40;;;;;;4992194;28;20424;-60
2022/12/27 14:41:25;;;;;;;5.03;1.92;;;6.20;84.40;;;;;;5049015;28;20057;-59
2022/12/27 14:44:28;;;;;;;5.63;1.90;;;6.20;84.30;;;;;;5063238;28;20056;-59
2022/12/27 14:47:34;;;;;;;4.25;1.73;;;6.20;84.30;;;;;;5063633;28;20052;-59
2022/12/27 14:50:41;;;;;;;5.78;2.13;;;6.20;84.40;;;;;;5003566;28;20046;-61
2022/12/27 14:53:41;;;;;;;8.23;2.13;;;6.20;84.50;;;;;;5068252;28;20487;-62
2022/12/27 14:56:21;;;;;;;5.60;2.20;;;6.20;84.40;;;;;;5049539;28;20137;-61
2022/12/27 14:59:04;;;;;;;5.10;2.08;;;6.20;84.30;;;;;;5067554;28;20060;-59
2022/12/27 15:01:45;;;;;;;4.80;1.90;;;6.10;84.30;;;;;;5067650;28;20614;-60
2022/12/27 15:04:42;;;;;;;5.50;1.73;;;6.10;84.30;;;;;;5064879;28;20498;-60
2022/12/27 15:07:37;;;;;;;3.95;1.48;;;6.10;84.20;;;;;;5065413;28;20131;-60
2022/12/27 15:10:14;;;;;;;5.68;1.98;;;6.10;84.20;;;;;;5071480;28;20051;-61
2022/12/27 15:12:46;;;;;;;4.75;1.70;;;6.10;84.50;;;;;;5071543;28;20135;-61